Time;durP1;ratioP1;P1;durP2;ratioP2;P2;SDS_P1;SDS_P2;PMS_P1;PMS_P2;Temp;Humidity;BMP_temperature;BMP_pressure;BME280_temperature;BME280_humidity;BME280_pressure;Samples;Min_cycle;Max_cycle;Signal;HPM_P1;HPM_P2
2022/08/16 00:01:08;;;;;;;6.63;3.88;;;23.50;63.50;;;22.29;51.38;99186.16;10273765;28;96873;-86
2022/08/16 00:06:12;;;;;;;4.88;3.95;;;23.50;63.90;;;22.21;51.76;99185.88;10281649;28;96613;-85
2022/08/16 00:11:17;;;;;;;4.85;3.70;;;23.40;63.90;;;22.17;52.25;99197.22;10251936;28;97259;-86
2022/08/16 00:16:28;;;;;;;8.15;3.78;;;23.40;64.10;;;22.15;52.13;99188.59;10268238;28;97285;-86
2022/08/16 00:21:52;;;;;;;6.15;4.18;;;23.30;64.20;;;22.10;52.19;99193.97;10273882;28;98444;-85
2022/08/16 00:27:04;;;;;;;5.05;3.63;;;23.30;64.40;;;22.02;52.80;99199.91;10264321;28;97439;-86
2022/08/16 00:32:10;;;;;;;8.35;3.63;;;23.20;64.80;;;21.95;52.71;99199.34;10245994;28;97376;-86
2022/08/16 00:37:23;;;;;;;6.30;4.32;;;23.20;64.80;;;21.90;52.78;99197.44;10259141;28;97545;-86
2022/08/16 00:42:46;;;;;;;7.47;4.18;;;23.10;65.10;;;21.86;53.21;99209.03;10254902;28;98232;-86
2022/08/16 00:47:56;;;;;;;4.05;3.65;;;23.10;65.40;;;21.78;53.56;99202.25;10249295;28;97513;-86
2022/08/16 00:52:59;;;;;;;5.57;3.75;;;23.00;65.70;;;21.65;53.75;99202.72;10271095;28;97210;-86
2022/08/16 00:58:03;;;;;;;4.95;3.80;;;22.90;66.10;;;21.55;54.31;99213.53;10281630;28;96669;-86
2022/08/16 01:03:18;;;;;;;4.75;3.15;;;22.70;66.40;;;21.42;54.26;99206.69;10259296;28;97653;-86
2022/08/16 01:08:35;;;;;;;5.18;3.47;;;22.60;66.60;;;21.34;54.71;99213.41;10261266;28;96892;-86
2022/08/16 01:13:41;;;;;;;5.28;4.05;;;22.50;66.80;;;21.30;54.45;99216.91;10259657;28;97502;-87
2022/08/16 01:19:12;;;;;;;6.45;3.80;;;22.40;66.90;;;21.26;54.85;99216.56;10247865;28;99241;-86
2022/08/16 01:24:39;;;;;;;6.28;3.88;;;22.40;67.10;;;21.20;55.15;99211.41;10276035;28;97413;-86
2022/08/16 01:30:10;;;;;;;4.03;3.63;;;22.40;67.40;;;21.10;55.64;99210.25;10278917;28;97169;-86
2022/08/16 01:35:46;;;;;;;3.80;3.40;;;22.20;67.60;;;21.04;55.56;99211.31;10255063;28;96986;-86
2022/08/16 01:41:01;;;;;;;7.68;3.95;;;22.20;67.80;;;21.02;55.35;99216.16;10268374;28;98000;-85
2022/08/16 01:46:20;;;;;;;4.28;3.67;;;22.20;67.80;;;20.97;55.63;99218.81;10271941;28;98678;-86
2022/08/16 01:51:45;;;;;;;3.70;3.30;;;22.10;68.00;;;20.92;55.97;99216.06;10277467;28;96700;-85
2022/08/16 01:56:48;;;;;;;5.30;3.80;;;22.10;68.20;;;20.84;56.07;99213.88;10253060;28;98340;-85
2022/08/16 02:01:53;;;;;;;4.47;3.65;;;22.00;68.80;;;20.79;56.62;99211.94;10259887;28;96978;-85
2022/08/16 02:07:08;;;;;;;5.05;3.88;;;21.90;68.80;;;20.78;56.53;99220.31;10251791;28;98282;-85
2022/08/16 02:12:15;;;;;;;7.20;3.90;;;21.90;69.00;;;20.74;56.30;99206.50;10252643;28;97292;-85
2022/08/16 02:17:37;;;;;;;5.38;3.90;;;21.90;69.10;;;20.78;56.42;99212.19;10267499;28;96841;-85
2022/08/16 02:22:42;;;;;;;6.72;4.07;;;21.90;69.10;;;20.76;56.41;99212.47;10267204;28;96787;-85
2022/08/16 02:27:48;;;;;;;4.05;3.30;;;22.00;69.10;;;20.77;56.50;99203.28;10278249;28;98622;-86
2022/08/16 02:32:53;;;;;;;4.53;3.58;;;22.00;69.10;;;20.77;56.38;99197.09;10267541;28;98771;-86
2022/08/16 02:37:57;;;;;;;6.15;3.30;;;22.00;69.10;;;20.76;56.89;99203.56;10245475;28;96715;-86
2022/08/16 02:43:10;;;;;;;4.40;3.28;;;22.00;69.20;;;20.68;56.64;99204.81;10261789;28;96705;-86
2022/08/16 02:48:13;;;;;;;5.38;3.38;;;21.90;69.30;;;20.63;56.84;99206.66;10273455;28;98491;-86
2022/08/16 02:53:34;;;;;;;4.43;3.22;;;21.80;69.40;;;20.56;56.64;99205.00;10280964;28;98646;-86
2022/08/16 02:58:38;;;;;;;4.53;3.35;;;21.80;69.40;;;20.50;57.08;99200.63;10280237;28;96788;-86
2022/08/16 03:03:42;;;;;;;4.72;3.67;;;21.70;69.60;;;20.44;57.12;99201.63;10251455;28;97038;-86
2022/08/16 03:09:05;;;;;;;6.30;5.30;;;21.60;69.80;;;20.42;57.50;99209.19;10274449;28;98561;-86
2022/08/16 03:14:15;;;;;;;7.47;4.82;;;21.60;69.90;;;20.38;57.40;99213.44;10267519;28;99290;-86
2022/08/16 03:19:29;;;;;;;6.47;4.25;;;21.60;69.90;;;20.33;57.37;99224.19;10261423;28;98626;-86
2022/08/16 03:24:52;;;;;;;3.70;3.25;;;21.60;70.00;;;20.27;57.30;99227.91;10253369;28;97367;-86
2022/08/16 03:30:09;;;;;;;15.93;13.25;;;21.50;69.90;;;20.24;57.75;99233.81;10241557;28;97527;-85
2022/08/16 03:35:25;;;;;;;7.75;6.20;;;21.50;70.20;;;20.19;58.09;99233.75;10275383;28;98161;-85
2022/08/16 03:40:37;;;;;;;5.85;4.70;;;21.40;70.60;;;20.14;58.06;99239.09;10255210;28;97159;-86
2022/08/16 03:45:40;;;;;;;5.10;3.75;;;21.40;71.00;;;20.12;58.28;99249.34;10274946;28;98060;-86
2022/08/16 03:50:44;;;;;;;6.03;3.97;;;21.30;71.10;;;20.11;58.87;99253.13;10264153;28;96759;-86
2022/08/16 03:56:03;;;;;;;6.35;3.78;;;21.40;71.30;;;20.13;58.95;99256.34;10255529;28;97403;-86
2022/08/16 04:01:09;;;;;;;6.13;5.28;;;21.40;71.20;;;20.21;58.81;99261.28;10287545;28;98388;-85
2022/08/16 04:06:14;;;;;;;6.35;3.90;;;21.50;71.30;;;20.31;58.86;99269.50;10282325;28;97339;-86
2022/08/16 04:11:19;;;;;;;4.28;3.88;;;21.50;71.40;;;20.40;58.78;99259.91;10281043;28;99104;-86
2022/08/16 04:16:26;;;;;;;7.32;4.30;;;21.60;71.50;;;20.49;59.23;99262.97;10254564;28;96838;-85
2022/08/16 04:21:32;;;;;;;5.45;3.42;;;21.70;71.60;;;20.62;59.42;99264.44;10270641;28;97885;-85
2022/08/16 04:26:36;;;;;;;5.32;3.67;;;21.80;71.70;;;20.76;59.19;99271.06;10243635;28;98747;-84
2022/08/16 04:31:50;;;;;;;10.07;3.95;;;22.00;71.80;;;20.89;59.01;99270.63;10263858;28;99133;-84
2022/08/16 04:37:00;;;;;;;6.93;4.38;;;22.10;71.80;;;21.01;59.40;99268.56;10275465;28;96814;-85
2022/08/16 04:42:05;;;;;;;4.90;4.38;;;22.20;71.70;;;21.16;59.32;99267.03;10267006;28;98293;-84
2022/08/16 04:47:13;;;;;;;5.63;4.43;;;22.40;71.80;;;21.29;59.07;99263.91;10259098;28;97684;-85
2022/08/16 04:52:26;;;;;;;6.05;3.78;;;22.50;71.70;;;21.40;58.35;99271.00;10279228;28;96802;-83
2022/08/16 04:57:38;;;;;;;9.48;4.60;;;22.60;71.40;;;21.46;58.21;99269.94;10256206;28;98673;-84
2022/08/16 05:02:43;;;;;;;5.47;4.45;;;22.60;71.40;;;21.54;58.83;99269.47;10285284;28;96728;-83
2022/08/16 05:07:48;;;;;;;8.48;4.10;;;22.70;71.80;;;21.63;58.85;99259.78;10301761;28;96680;-83
2022/08/16 05:13:05;;;;;;;8.55;4.70;;;22.80;71.70;;;21.69;59.19;99262.50;10252375;28;97759;-83
2022/08/16 05:18:08;;;;;;;5.50;4.22;;;23.00;72.00;;;21.77;59.43;99264.69;10276255;28;97077;-83
2022/08/16 05:23:18;;;;;;;5.15;4.15;;;23.10;72.10;;;21.91;59.32;99279.38;10294341;28;96851;-82
2022/08/16 05:28:23;;;;;;;6.45;4.22;;;23.20;72.00;;;22.05;58.97;99277.00;10273595;28;96730;-83
2022/08/16 05:33:39;;;;;;;4.65;4.13;;;23.30;71.80;;;22.24;58.81;99282.75;10294996;28;96614;-83
2022/08/16 05:38:45;;;;;;;7.50;4.35;;;23.40;71.80;;;22.38;58.33;99281.19;10287546;28;98207;-83
2022/08/16 05:43:48;;;;;;;11.45;4.28;;;23.60;71.60;;;22.55;57.83;99279.06;10260788;28;98565;-82
2022/08/16 05:48:52;;;;;;;5.32;3.90;;;23.70;71.40;;;22.71;57.64;99274.44;10247697;28;99035;-83
2022/08/16 05:53:59;;;;;;;4.57;3.80;;;23.90;71.20;;;22.88;57.41;99291.28;10278942;28;98362;-82
2022/08/16 05:59:04;;;;;;;5.88;4.30;;;24.00;71.20;;;23.07;57.80;99291.56;10288615;28;97688;-82
2022/08/16 06:04:11;;;;;;;6.30;4.25;;;24.20;71.70;;;23.29;58.53;99291.28;10275077;28;97374;-83
2022/08/16 06:09:37;;;;;;;8.32;4.55;;;24.40;71.80;;;23.52;59.59;99287.16;10278737;28;96730;-83
2022/08/16 06:14:47;;;;;;;7.90;4.63;;;24.70;72.70;;;23.71;60.11;99288.22;10259886;28;98566;-83
2022/08/16 06:19:54;;;;;;;8.70;4.32;;;24.90;73.20;;;23.91;59.84;99281.91;10259247;28;98025;-83
2022/08/16 06:24:58;;;;;;;6.22;4.07;;;25.20;73.00;;;24.21;59.41;99286.38;10265216;28;97159;-83
2022/08/16 06:30:03;;;;;;;5.78;4.40;;;25.40;72.80;;;24.48;57.94;99285.19;10268729;28;98152;-84
2022/08/16 06:35:11;;;;;;;6.47;4.00;;;25.60;72.20;;;24.81;56.53;99284.38;10269902;28;98258;-83
2022/08/16 06:40:15;;;;;;;6.63;3.80;;;25.90;71.10;;;25.07;49.79;99282.31;10271622;28;98180;-84
2022/08/16 06:45:20;;;;;;;4.53;3.78;;;26.20;65.20;;;25.23;47.64;99279.44;10269972;28;98755;-86
2022/08/16 06:50:26;;;;;;;7.85;4.00;;;26.30;62.70;;;25.27;47.29;99281.31;10261118;28;96692;-85
2022/08/16 06:55:35;;;;;;;9.20;3.85;;;26.30;62.00;;;25.33;46.28;99282.06;10258155;28;99668;-85
2022/08/16 07:00:41;;;;;;;6.97;4.03;;;26.30;61.10;;;25.38;46.75;99271.16;10258830;28;96690;-85
2022/08/16 07:05:45;;;;;;;7.78;4.13;;;26.40;62.10;;;25.43;46.65;99272.97;10270234;28;97727;-85
2022/08/16 07:10:51;;;;;;;4.15;3.70;;;26.40;61.30;;;25.52;46.60;99280.22;10241697;28;97166;-84
2022/08/16 07:15:58;;;;;;;4.38;3.67;;;26.50;61.70;;;25.64;46.60;99290.72;10269089;28;97313;-85
2022/08/16 07:21:02;;;;;;;4.30;3.78;;;26.60;61.60;;;25.89;46.45;99282.28;10260129;28;96799;-85
2022/08/16 07:26:12;;;;;;;4.38;3.58;;;26.80;61.50;;;26.21;45.16;99278.06;10264422;28;99722;-87
2022/08/16 07:31:28;;;;;;;5.22;3.60;;;27.20;60.50;;;26.39;43.86;99274.56;10272990;28;96893;-85
2022/08/16 07:36:40;;;;;;;5.78;3.33;;;27.40;59.10;;;26.51;42.95;99276.88;10278587;28;96703;-84
2022/08/16 07:41:47;;;;;;;4.50;3.65;;;27.50;58.40;;;26.64;42.88;99286.22;10234871;28;97022;-85
2022/08/16 07:46:50;;;;;;;5.28;3.95;;;27.60;58.00;;;26.80;42.25;99278.56;10273372;28;96831;-85
2022/08/16 07:51:58;;;;;;;8.00;3.40;;;27.80;57.60;;;27.08;42.17;99291.22;10274483;28;96765;-85
2022/08/16 07:57:02;;;;;;;4.10;3.13;;;28.10;57.50;;;27.31;41.70;99273.09;10260239;28;97662;-83
2022/08/16 08:02:06;;;;;;;2.75;2.55;;;28.30;56.90;;;27.65;41.06;99275.47;10262909;28;97100;-85
2022/08/16 08:07:14;;;;;;;4.15;2.97;;;28.60;56.50;;;27.88;40.29;99273.66;10286504;28;97087;-84
2022/08/16 08:12:19;;;;;;;5.22;3.30;;;28.90;56.10;;;28.06;39.77;99262.91;10270633;28;98301;-84
2022/08/16 08:17:38;;;;;;;8.75;3.47;;;29.10;55.80;;;28.24;40.22;99264.69;10274440;28;96797;-84
2022/08/16 08:22:47;;;;;;;3.97;2.90;;;29.30;55.80;;;28.45;38.59;99256.91;10275255;28;97374;-84
2022/08/16 08:27:51;;;;;;;2.78;2.10;;;29.50;54.60;;;28.64;38.70;99264.91;10271288;28;96751;-84
2022/08/16 08:33:00;;;;;;;5.88;2.70;;;29.70;54.70;;;28.91;37.93;99261.22;10285300;28;96720;-84
2022/08/16 08:38:07;;;;;;;7.93;2.80;;;29.90;54.10;;;29.24;37.60;99261.78;10293481;28;96551;-85
2022/08/16 08:43:11;;;;;;;3.42;2.53;;;30.30;53.50;;;29.52;36.46;99260.50;10269087;28;97431;-84
2022/08/16 08:48:21;;;;;;;4.20;2.50;;;30.50;52.40;;;29.75;36.20;99252.22;10276387;28;96701;-84
2022/08/16 08:53:38;;;;;;;5.03;2.70;;;30.80;52.20;;;30.06;35.29;99254.88;10287480;28;96626;-84
2022/08/16 08:58:41;;;;;;;5.07;2.58;;;31.10;51.50;;;30.33;34.43;99260.06;10268614;28;97322;-85
2022/08/16 09:04:02;;;;;;;4.13;2.30;;;31.40;50.60;;;30.55;33.30;99248.16;10275517;28;96518;-84
2022/08/16 09:09:08;;;;;;;3.08;2.40;;;31.60;49.80;;;30.77;32.92;99251.84;10268775;28;96544;-85
2022/08/16 09:14:18;;;;;;;2.95;2.33;;;31.80;49.30;;;31.03;32.13;99246.34;10280081;28;96854;-85
2022/08/16 09:19:26;;;;;;;2.40;2.00;;;32.10;48.10;;;31.25;31.06;99245.31;10269200;28;96621;-85
2022/08/16 09:24:36;;;;;;;4.53;2.80;;;32.30;47.70;;;31.34;31.08;99244.16;10290823;28;96617;-84
2022/08/16 09:29:54;;;;;;;3.28;2.35;;;32.50;47.30;;;31.56;30.89;99248.59;10286142;28;98335;-85
2022/08/16 09:35:04;;;;;;;3.00;2.70;;;32.70;47.00;;;31.73;30.08;99236.72;10263847;28;96455;-84
2022/08/16 09:40:08;;;;;;;3.13;2.30;;;32.80;47.00;;;31.90;29.98;99244.06;10276496;28;96754;-85
2022/08/16 09:45:37;;;;;;;3.35;2.60;;;32.90;46.10;;;32.15;29.67;99234.88;10287130;28;96793;-85
2022/08/16 09:50:43;;;;;;;2.90;2.10;;;33.10;46.10;;;32.34;29.10;99225.38;10270403;28;96742;-85
2022/08/16 09:55:53;;;;;;;5.22;2.38;;;33.30;45.90;;;32.54;28.82;99234.75;10274476;28;97619;-85
2022/08/16 10:00:59;;;;;;;3.28;2.35;;;33.50;45.50;;;32.73;28.86;99230.34;10284439;28;96771;-85
2022/08/16 10:06:02;;;;;;;3.65;2.70;;;33.70;45.70;;;33.00;28.61;99222.66;10317797;28;96564;-85
2022/08/16 10:16:28;;;;;;;5.43;2.75;;;34.10;44.90;;;32.93;28.97;99216.91;10291809;28;96889;-85
2022/08/16 10:21:31;;;;;;;3.80;2.80;;;34.00;45.30;;;33.05;28.82;99214.19;10279864;28;96732;-85
2022/08/16 10:26:35;;;;;;;3.08;2.58;;;34.20;45.10;;;32.92;29.04;99216.09;10272010;28;96658;-84
2022/08/16 10:31:59;;;;;;;4.43;3.20;;;34.10;45.40;;;32.63;29.53;99224.47;10297638;28;96665;-84
2022/08/16 10:37:05;;;;;;;4.38;3.08;;;33.80;45.60;;;32.33;29.40;99231.97;10304319;28;97571;-85
2022/08/16 10:42:11;;;;;;;3.42;3.13;;;33.50;45.50;;;32.07;30.57;99232.97;10292772;28;96714;-85
2022/08/16 10:47:15;;;;;;;4.15;2.55;;;33.30;46.20;;;31.85;30.49;99227.81;10274844;28;97676;-84
2022/08/16 10:52:18;;;;;;;3.60;2.83;;;33.00;46.20;;;31.64;30.16;99223.03;10321581;28;96770;-84
2022/08/16 10:57:21;;;;;;;3.08;2.78;;;32.80;45.90;;;31.45;29.96;99225.38;10274804;28;96661;-84
2022/08/16 11:02:26;;;;;;;4.65;2.80;;;32.60;45.90;;;31.29;30.87;99224.31;10292882;28;96537;-85
2022/08/16 11:07:51;;;;;;;2.90;2.53;;;32.50;46.40;;;31.16;32.03;99218.69;10283676;28;99017;-85
2022/08/16 11:12:56;;;;;;;4.20;2.80;;;32.30;47.40;;;30.97;32.50;99237.47;10261721;28;97564;-84
2022/08/16 11:18:19;;;;;;;3.80;2.70;;;32.20;47.80;;;30.67;33.10;99239.28;10265798;28;99179;-85
2022/08/16 11:23:42;;;;;;;5.65;3.13;;;31.90;48.40;;;30.17;34.93;99241.69;10271043;28;97441;-85
2022/08/16 11:29:00;;;;;;;6.20;3.25;;;31.50;49.80;;;29.76;35.52;99240.94;10283185;28;97402;-85
2022/08/16 11:34:18;;;;;;;3.67;2.97;;;31.00;50.40;;;29.49;35.80;99232.94;10260765;28;98553;-85
2022/08/16 11:39:22;;;;;;;5.25;3.10;;;30.60;50.70;;;29.29;36.09;99237.84;10275653;28;97035;-85
2022/08/16 11:44:25;;;;;;;7.28;3.20;;;30.50;51.00;;;29.19;36.57;99232.63;10250299;28;98355;-85
2022/08/16 11:49:48;;;;;;;9.20;2.83;;;30.40;51.40;;;29.09;37.48;99249.34;10276302;28;97936;-85
2022/08/16 11:54:51;;;;;;;5.18;2.63;;;30.20;52.20;;;28.97;38.73;99238.16;10262582;28;97319;-86
2022/08/16 11:59:59;;;;;;;3.50;2.88;;;30.10;52.90;;;28.99;39.20;99233.97;10254417;28;99062;-86
2022/08/16 12:05:07;;;;;;;3.72;2.80;;;30.10;53.50;;;29.10;39.97;99231.00;10289603;28;96571;-86
2022/08/16 12:10:18;;;;;;;6.75;3.00;;;30.20;54.60;;;29.20;39.88;99219.75;10253352;28;96855;-86
2022/08/16 12:15:21;;;;;;;4.47;3.00;;;30.30;54.70;;;29.32;39.53;99225.44;10253336;28;98250;-86
2022/08/16 12:20:31;;;;;;;3.05;2.65;;;30.40;54.60;;;29.46;39.60;99226.16;10273437;28;97379;-86
2022/08/16 12:25:37;;;;;;;5.45;3.05;;;30.60;54.30;;;29.70;39.13;99216.78;10268620;28;96558;-86
2022/08/16 12:30:44;;;;;;;16.20;4.15;;;30.80;53.90;;;30.12;38.08;99209.78;10259378;28;96866;-86
2022/08/16 12:35:48;;;;;;;5.15;3.72;;;31.30;53.30;;;31.03;36.50;99203.25;10276395;28;97372;-85
2022/08/16 12:40:52;;;;;;;4.78;3.17;;;32.30;51.50;;;31.86;34.48;99205.50;10260741;28;98020;-86
2022/08/16 12:45:59;;;;;;;4.10;2.53;;;33.20;50.10;;;32.54;33.24;99193.50;10268321;28;97450;-85
2022/08/16 12:51:08;;;;;;;4.32;2.50;;;34.00;48.90;;;32.79;31.61;99186.13;10274541;28;97543;-86
2022/08/16 12:56:31;;;;;;;8.70;2.70;;;34.20;47.80;;;33.16;30.57;99192.50;10270294;28;96726;-86
2022/08/16 13:01:37;;;;;;;5.72;2.53;;;34.40;46.60;;;33.44;29.74;99192.69;10271709;28;97065;-85
2022/08/16 13:06:43;;;;;;;7.30;2.67;;;34.70;45.60;;;33.81;28.65;99180.47;10275367;28;97269;-85
2022/08/16 13:12:22;;;;;;;2.83;2.00;;;35.00;45.00;;;34.01;27.68;99169.69;10267641;28;96641;-85
2022/08/16 13:17:27;;;;;;;4.38;2.60;;;35.10;44.00;;;34.31;27.59;99162.69;10273810;28;97683;-84
2022/08/16 13:22:32;;;;;;;4.43;2.53;;;35.30;44.20;;;34.71;27.13;99164.56;10274759;28;97021;-85
2022/08/16 13:27:35;;;;;;;7.53;2.65;;;35.70;43.50;;;35.00;28.06;99160.63;10268164;28;98354;-86
2022/08/16 13:32:58;;;;;;;3.13;2.42;;;35.90;44.00;;;34.71;28.58;99149.97;10287883;28;96615;-85
2022/08/16 13:38:02;;;;;;;3.60;2.80;;;35.80;44.70;;;34.12;29.41;99150.66;10275527;28;97479;-85
2022/08/16 13:43:08;;;;;;;5.38;2.83;;;35.30;45.80;;;33.63;29.14;99153.53;10282726;28;97414;-85
2022/08/16 13:48:13;;;;;;;16.55;4.28;;;34.90;46.30;;;33.10;35.13;99156.16;10257896;28;97607;-85
2022/08/16 13:53:27;;;;;;;9.65;3.80;;;34.50;50.50;;;32.17;40.11;99166.63;10260100;28;98404;-86
2022/08/16 13:58:30;;;;;;;6.30;3.70;;;33.60;55.10;;;31.42;44.70;99165.66;10271232;28;98290;-86
2022/08/16 14:03:40;;;;;;;5.82;3.30;;;32.80;57.60;;;30.96;47.81;99177.47;10292539;28;97000;-86
2022/08/16 14:08:45;;;;;;;6.40;3.47;;;32.30;60.10;;;30.67;46.96;99172.66;10282930;28;98469;-85
2022/08/16 14:14:08;;;;;;;5.07;3.38;;;32.10;60.50;;;30.47;47.98;99172.22;10265882;28;97327;-84
2022/08/16 14:19:17;;;;;;;2.83;2.35;;;31.80;60.70;;;30.74;38.21;99159.28;10284986;28;97351;-85
2022/08/16 14:24:24;;;;;;;3.70;2.70;;;31.90;54.30;;;30.95;36.71;99160.19;10275180;28;97147;-86
2022/08/16 14:29:32;;;;;;;4.25;2.88;;;32.10;52.10;;;31.03;33.69;99156.59;10271548;28;96972;-86
2022/08/16 14:34:40;;;;;;;3.30;2.63;;;32.10;49.90;;;31.04;33.08;99171.13;10244563;28;97568;-86
2022/08/16 14:39:44;;;;;;;3.20;2.35;;;32.10;48.80;;;31.09;32.95;99174.50;10281284;28;96566;-86
2022/08/16 14:44:48;;;;;;;5.63;2.80;;;32.00;48.30;;;31.10;31.66;99170.63;10268725;28;96657;-86
2022/08/16 14:49:51;;;;;;;3.95;2.38;;;32.10;47.40;;;31.15;31.43;99175.13;10259282;28;97727;-85
2022/08/16 14:54:54;;;;;;;5.75;2.90;;;32.10;47.00;;;31.11;31.85;99183.19;10262917;28;98383;-85
2022/08/16 14:59:57;;;;;;;5.45;3.00;;;32.10;47.50;;;30.87;33.60;99181.00;10254574;28;98198;-85
2022/08/16 15:05:10;;;;;;;3.20;2.88;;;31.90;48.60;;;30.62;33.83;99174.44;10255457;28;96627;-85
2022/08/16 15:10:13;;;;;;;4.60;3.10;;;31.70;49.10;;;30.50;33.89;99178.97;10257268;28;98626;-85
2022/08/16 15:15:28;;;;;;;3.53;2.40;;;31.50;49.10;;;30.48;33.31;99182.03;10267597;28;98423;-86
2022/08/16 15:20:34;;;;;;;3.50;2.92;;;31.50;49.10;;;30.53;33.49;99186.56;10249811;28;99104;-85
2022/08/16 15:25:46;;;;;;;3.13;2.55;;;31.50;49.00;;;30.56;33.22;99196.88;10271018;28;97109;-85
2022/08/16 15:31:08;;;;;;;2.75;2.40;;;31.50;48.80;;;30.58;32.93;99195.41;10274340;28;96861;-85
2022/08/16 15:36:19;;;;;;;4.45;2.70;;;31.50;48.40;;;30.61;32.86;99200.25;10240426;28;97052;-84
2022/08/16 15:41:38;;;;;;;4.38;2.42;;;31.50;48.30;;;30.67;33.44;99200.88;10287219;28;97550;-85
2022/08/16 15:46:45;;;;;;;3.33;2.60;;;31.60;48.70;;;30.63;33.80;99197.16;10284464;28;97945;-85
2022/08/16 15:52:00;;;;;;;2.92;2.60;;;31.60;48.90;;;30.64;33.63;99207.81;10290188;28;97837;-84
2022/08/16 15:57:05;;;;;;;3.10;2.67;;;31.60;48.90;;;30.86;33.05;99204.09;10281214;28;98528;-84
2022/08/16 16:02:15;;;;;;;2.65;2.20;;;31.70;48.50;;;31.31;31.83;99194.63;10263119;28;97815;-85
2022/08/16 16:07:30;;;;;;;2.60;2.40;;;32.00;47.80;;;31.73;31.53;99187.28;10292095;28;98365;-85
2022/08/16 16:12:36;;;;;;;3.22;2.47;;;32.50;47.40;;;31.86;30.69;99194.50;10259891;28;97811;-85
2022/08/16 16:17:57;;;;;;;3.17;2.30;;;32.70;46.40;;;31.89;30.42;99193.81;10277460;28;97243;-85
2022/08/16 16:23:06;;;;;;;2.78;2.22;;;32.70;46.20;;;31.97;30.19;99189.41;10287142;28;96641;-84
2022/08/16 16:28:16;;;;;;;6.03;2.60;;;32.80;46.00;;;32.18;30.14;99200.41;10278308;28;96870;-84
2022/08/16 16:33:42;;;;;;;7.10;2.65;;;33.00;46.30;;;32.14;32.48;99214.00;10268719;28;98522;-85
2022/08/16 16:38:47;;;;;;;4.85;2.83;;;33.20;48.00;;;31.55;34.35;99255.22;10273479;28;99740;-86
2022/08/16 16:43:52;;;;;;;4.10;2.85;;;32.80;49.20;;;31.04;34.16;99264.41;10284872;28;96682;-87
2022/08/16 16:48:55;;;;;;;4.68;2.67;;;32.40;49.10;;;30.64;34.11;99281.84;10248340;28;97770;-86
2022/08/16 16:54:01;;;;;;;4.00;2.40;;;32.00;48.90;;;30.48;34.32;99291.69;10275271;28;96800;-86
2022/08/16 16:59:09;;;;;;;3.75;2.75;;;31.80;49.30;;;30.21;34.87;99292.78;10290431;28;98316;-86
2022/08/16 17:04:15;;;;;;;6.82;2.80;;;31.50;49.80;;;30.02;35.17;99287.56;10276456;28;97367;-86
2022/08/16 17:09:23;;;;;;;4.63;2.70;;;31.30;50.10;;;29.85;36.07;99298.47;10277192;28;98529;-85
2022/08/16 17:14:27;;;;;;;4.72;2.75;;;31.10;50.70;;;29.72;36.65;99302.13;10288689;28;98828;-86
2022/08/16 17:19:37;;;;;;;9.35;3.00;;;30.90;51.10;;;29.55;37.30;99306.41;10274659;28;97447;-86
2022/08/16 17:24:50;;;;;;;5.28;2.70;;;30.80;51.40;;;29.39;37.60;99318.88;10255895;28;99003;-85
2022/08/16 17:29:54;;;;;;;5.95;3.00;;;30.60;51.80;;;29.20;38.23;99337.41;10242264;28;96678;-86
2022/08/16 17:34:59;;;;;;;4.25;2.90;;;30.50;52.00;;;29.01;38.69;99357.53;10289044;28;97195;-86
2022/08/16 17:40:12;;;;;;;4.22;2.60;;;30.30;52.70;;;28.83;39.12;99369.44;10289075;28;98321;-86
2022/08/16 17:45:38;;;;;;;5.32;3.40;;;30.10;53.20;;;28.17;46.27;99368.91;10277640;28;97038;-86
2022/08/16 17:50:42;;;;;;;6.00;3.60;;;29.60;58.80;;;26.86;51.66;99373.59;10292115;28;96727;-89
2022/08/16 17:55:49;;;;;;;4.40;3.40;;;28.50;63.30;;;25.81;55.91;99364.56;10294947;28;97635;-89
2022/08/16 18:00:58;;;;;;;6.75;5.05;;;27.40;66.00;;;24.91;59.84;99364.22;10271246;28;98211;-89
2022/08/16 18:06:04;;;;;;;6.55;4.53;;;26.40;70.10;;;24.26;62.18;99358.84;10271781;28;97079;-90
2022/08/16 18:11:07;;;;;;;4.40;3.97;;;25.60;72.60;;;23.65;65.12;99376.09;10298932;28;98689;-90
2022/08/16 18:16:15;;;;;;;7.22;4.45;;;25.00;76.30;;;23.29;66.63;99388.03;10261263;28;98325;-90
2022/08/16 18:26:40;;;;;;;5.18;4.68;;;24.10;80.20;;;22.76;69.41;99390.91;10279611;28;98585;-88
2022/08/16 18:31:43;;;;;;;5.65;4.90;;;23.90;82.20;;;22.63;70.53;99381.41;10271136;28;98759;-88
2022/08/16 18:36:47;;;;;;;4.93;4.43;;;23.80;84.80;;;22.56;72.22;99383.56;10274114;28;96788;-88
2022/08/16 18:41:50;;;;;;;5.88;3.97;;;23.70;86.70;;;22.47;72.51;99378.91;10260373;28;98342;-89
2022/08/16 18:46:54;;;;;;;6.97;3.95;;;23.60;87.90;;;22.35;72.71;99379.94;10247155;28;96658;-88
2022/08/16 18:52:00;;;;;;;5.72;4.20;;;23.50;88.50;;;22.23;72.18;99392.91;10227973;28;97632;-87
2022/08/16 18:57:03;;;;;;;4.68;3.95;;;23.40;89.30;;;22.18;72.40;99396.38;10236391;28;97420;-88
2022/08/16 19:02:09;;;;;;;4.43;4.03;;;23.30;89.90;;;22.14;71.82;99394.50;10250070;28;97627;-87
2022/08/16 19:07:32;;;;;;;6.60;4.25;;;23.30;90.10;;;22.09;70.95;99397.13;10247921;28;96708;-89
2022/08/16 19:12:36;;;;;;;6.90;4.15;;;23.20;90.00;;;22.13;70.03;99403.66;10238314;28;99020;-88
2022/08/16 19:17:45;;;;;;;5.00;3.67;;;23.20;89.30;;;22.09;69.68;99397.97;10225715;28;97642;-88
2022/08/16 19:22:48;;;;;;;4.68;3.83;;;23.20;89.10;;;22.11;68.87;99401.22;10248841;28;97987;-87
2022/08/16 19:28:12;;;;;;;4.30;3.90;;;23.20;89.00;;;22.17;68.08;99399.34;10250400;28;98404;-87
2022/08/16 19:33:36;;;;;;;4.30;3.90;;;23.30;88.50;;;22.18;67.70;99393.69;10234991;28;97633;-87
2022/08/16 19:38:39;;;;;;;3.90;3.42;;;23.30;87.60;;;22.28;66.38;99401.03;10255219;28;96648;-87
2022/08/16 19:43:43;;;;;;;4.43;3.67;;;23.40;86.60;;;22.36;65.98;99397.00;10273588;28;96936;-87
2022/08/16 19:48:46;;;;;;;4.18;3.45;;;23.50;85.90;;;22.41;65.09;99405.16;10264967;28;96710;-89
2022/08/16 19:53:49;;;;;;;4.00;3.60;;;23.50;84.40;;;22.44;64.51;99404.63;10262617;28;96909;-88
2022/08/16 19:58:52;;;;;;;4.30;3.90;;;23.50;84.10;;;22.53;63.61;99407.63;10263107;28;98247;-88
2022/08/16 20:04:15;;;;;;;3.80;3.40;;;23.60;82.90;;;22.54;62.77;99407.34;10244325;28;99062;-88
2022/08/16 20:09:20;;;;;;;4.82;3.55;;;23.60;82.30;;;22.58;62.31;99410.38;10259266;28;97356;-89
2022/08/16 20:14:23;;;;;;;4.25;2.95;;;23.70;82.10;;;22.56;62.77;99404.41;10277269;28;97917;-88
2022/08/16 20:19:31;;;;;;;3.47;3.17;;;23.60;82.00;;;22.51;61.76;99407.91;10269940;28;98301;-89
2022/08/16 20:24:42;;;;;;;3.53;3.20;;;23.60;80.70;;;22.53;60.51;99413.84;10267792;28;96714;-88
2022/08/16 20:29:47;;;;;;;4.10;3.10;;;23.60;78.90;;;22.65;59.79;99421.75;10278403;28;98012;-87
2022/08/16 20:34:52;;;;;;;4.28;3.33;;;23.70;78.30;;;22.62;61.81;99423.09;10242822;28;98183;-88
2022/08/16 20:39:55;;;;;;;4.13;3.33;;;23.70;79.50;;;22.53;62.24;99413.03;10272404;28;97144;-88
2022/08/16 20:45:20;;;;;;;4.00;3.33;;;23.70;80.20;;;22.42;60.90;99414.91;10251520;28;96955;-88
2022/08/16 20:50:25;;;;;;;3.78;3.40;;;23.60;79.60;;;22.34;62.93;99413.50;10235033;28;97583;-87
2022/08/16 20:55:29;;;;;;;5.47;3.63;;;23.50;80.60;;;22.25;63.46;99422.38;10259494;28;98557;-88
2022/08/16 21:00:32;;;;;;;3.80;3.45;;;23.50;81.20;;;22.20;63.65;99442.16;10276474;28;98006;-88
2022/08/16 21:05:36;;;;;;;4.45;3.97;;;23.40;81.10;;;22.02;63.72;99446.06;10259340;28;98552;-87
2022/08/16 21:10:39;;;;;;;3.70;3.33;;;23.30;81.70;;;21.84;63.68;99449.19;10256668;28;96642;-87
2022/08/16 21:15:42;;;;;;;4.00;3.38;;;23.00;82.30;;;21.63;64.11;99443.63;10281094;28;97082;-87
2022/08/16 21:20:45;;;;;;;4.90;3.50;;;22.80;82.80;;;21.53;64.50;99448.13;10263112;28;96899;-87
2022/08/16 21:25:48;;;;;;;4.78;3.35;;;22.70;83.10;;;21.44;64.48;99450.50;10259225;28;98378;-87
2022/08/16 21:31:01;;;;;;;5.57;3.45;;;22.60;83.30;;;21.38;65.44;99454.22;10272376;28;96906;-87
2022/08/16 21:36:04;;;;;;;5.00;3.80;;;22.60;84.10;;;21.33;65.66;99457.69;10292775;28;98372;-87